Time;durP1;ratioP1;P1;durP2;ratioP2;P2;SDS_P1;SDS_P2;PMS_P1;PMS_P2;Temp;Humidity;BMP_temperature;BMP_pressure;BME280_temperature;BME280_humidity;BME280_pressure;Samples;Min_cycle;Max_cycle;Signal;HPM_P1;HPM_P2
2023/07/27 00:00:16;;;;;;;3.80;3.40;;;;;;;;;;5024861;28;20268;-52
2023/07/27 00:02:42;;;;;;;5.90;4.03;;;;;;;;;;5019382;28;20700;-52
2023/07/27 00:05:09;;;;;;;4.17;3.77;;;;;;;;;;5024904;28;20728;-52
2023/07/27 00:07:35;;;;;;;3.23;2.93;;;;;;;;;;5020644;28;20181;-52
2023/07/27 00:10:01;;;;;;;3.47;3.17;;;;;;;;;;5021252;28;20194;-52
2023/07/27 00:12:27;;;;;;;3.80;3.40;;;;;;;;;;5022439;28;20210;-52
2023/07/27 00:14:53;;;;;;;3.97;3.57;;;;;;;;;;5023457;28;20421;-52
2023/07/27 00:17:20;;;;;;;3.90;3.47;;;;;;;;;;5018915;28;20198;-52
2023/07/27 00:19:46;;;;;;;3.80;3.50;;;;;;;;;;5013467;28;20528;-51
2023/07/27 00:22:12;;;;;;;3.73;3.30;;;;;;;;;;5022060;28;20201;-53
2023/07/27 00:24:38;;;;;;;3.53;3.23;;;;;;;;;;5018797;28;20266;-51
2023/07/27 00:27:05;;;;;;;3.97;3.57;;;;;;;;;;5026691;28;20343;-51
2023/07/27 00:29:31;;;;;;;4.40;3.70;;;;;;;;;;5024759;28;20224;-51
2023/07/27 00:31:58;;;;;;;3.50;3.20;;;;;;;;;;5023169;28;20297;-51
2023/07/27 00:34:27;;;;;;;3.77;3.13;;;;;;;;;;5025029;28;20281;-52
2023/07/27 00:36:54;;;;;;;5.50;3.30;;;;;;;;;;5023868;28;20558;-52
2023/07/27 00:39:20;;;;;;;6.43;3.37;;;;;;;;;;5017603;28;20332;-52
2023/07/27 00:41:46;;;;;;;3.70;3.40;;;;;;;;;;5018551;28;20209;-52
2023/07/27 00:44:12;;;;;;;4.57;3.70;;;;;;;;;;5020464;28;20187;-52
2023/07/27 00:46:38;;;;;;;3.53;3.23;;;;;;;;;;5016540;28;20175;-52
2023/07/27 00:49:05;;;;;;;3.80;3.50;;;;;;;;;;5014368;28;20200;-52
2023/07/27 00:51:39;;;;;;;3.67;3.17;;;;;;;;;;5014381;28;20642;-52
2023/07/27 00:54:06;;;;;;;4.07;3.63;;;;;;;;;;5021124;28;20186;-52
2023/07/27 00:56:34;;;;;;;3.80;3.40;;;;;;;;;;5019810;28;20183;-52
2023/07/27 00:59:00;;;;;;;3.70;3.40;;;;;;;;;;5021602;28;20190;-52
2023/07/27 01:01:27;;;;;;;3.67;3.37;;;;;;;;;;5024012;28;20712;-52
2023/07/27 01:03:54;;;;;;;3.53;3.23;;;;;;;;;;5024127;28;20541;-52
2023/07/27 01:06:20;;;;;;;4.20;3.80;;;;;;;;;;5011741;28;20309;-51
2023/07/27 01:08:47;;;;;;;3.20;3.00;;;;;;;;;;5019260;28;20182;-51
2023/07/27 01:11:19;;;;;;;3.87;3.43;;;;;;;;;;5017137;28;20557;-51
2023/07/27 01:14:05;;;;;;;3.87;3.47;;;;;;;;;;5023269;28;20301;-51
2023/07/27 01:16:38;;;;;;;4.00;3.70;;;;;;;;;;5005754;28;20666;-51
2023/07/27 01:19:19;;;;;;;3.67;3.37;;;;;;;;;;5017093;28;20185;-51
2023/07/27 01:21:48;;;;;;;4.40;3.37;;;;;;;;;;5018445;28;20626;-51
2023/07/27 01:24:33;;;;;;;3.50;3.20;;;;;;;;;;5022157;28;20265;-51
2023/07/27 01:26:59;;;;;;;4.03;3.57;;;;;;;;;;5022103;28;20645;-51
2023/07/27 01:29:49;;;;;;;3.63;3.10;;;;;;;;;;5015760;28;20195;-51
2023/07/27 01:32:16;;;;;;;3.27;2.97;;;;;;;;;;5005689;28;20616;-51
2023/07/27 01:34:44;;;;;;;5.77;4.23;;;;;;;;;;5021777;28;20767;-51
2023/07/27 01:37:14;;;;;;;3.00;2.80;;;;;;;;;;5026357;28;20259;-51
2023/07/27 01:39:46;;;;;;;3.33;3.03;;;;;;;;;;5025999;28;20301;-51
2023/07/27 01:42:13;;;;;;;4.10;3.33;;;;;;;;;;5022572;28;20359;-50
2023/07/27 01:44:39;;;;;;;4.03;3.50;;;;;;;;;;5024749;28;20585;-51
2023/07/27 01:47:06;;;;;;;3.37;3.07;;;;;;;;;;5025217;28;20183;-51
2023/07/27 01:49:32;;;;;;;3.60;3.30;;;;;;;;;;5027184;28;20198;-50
2023/07/27 01:51:59;;;;;;;3.40;3.10;;;;;;;;;;5018544;28;20218;-51
2023/07/27 01:54:28;;;;;;;3.70;3.20;;;;;;;;;;5021919;28;20230;-51
2023/07/27 01:56:55;;;;;;;4.40;3.67;;;;;;;;;;5021343;28;20185;-51
2023/07/27 01:59:22;;;;;;;3.43;3.13;;;;;;;;;;5014768;28;20182;-51
2023/07/27 02:01:49;;;;;;;3.13;2.83;;;;;;;;;;5022965;28;20229;-51
2023/07/27 02:04:16;;;;;;;3.30;3.00;;;;;;;;;;5013204;28;20898;-51
2023/07/27 02:06:42;;;;;;;3.17;2.87;;;;;;;;;;5019628;28;20271;-51
2023/07/27 02:09:08;;;;;;;2.80;2.60;;;;;;;;;;5018528;28;20182;-51
2023/07/27 02:11:35;;;;;;;3.33;3.03;;;;;;;;;;5019234;28;20188;-51
2023/07/27 02:14:12;;;;;;;3.13;2.83;;;;;;;;;;5021467;28;20189;-51
2023/07/27 02:16:53;;;;;;;3.97;3.40;;;;;;;;;;5021050;28;20276;-51
2023/07/27 02:19:22;;;;;;;5.50;2.90;;;;;;;;;;5020006;28;20189;-51
2023/07/27 02:21:48;;;;;;;3.50;3.10;;;;;;;;;;5024257;28;20213;-51
2023/07/27 02:24:15;;;;;;;3.00;2.80;;;;;;;;;;5020500;28;20182;-51
2023/07/27 02:26:42;;;;;;;3.27;3.00;;;;;;;;;;5021599;28;20214;-51
2023/07/27 02:29:08;;;;;;;3.73;3.33;;;;;;;;;;5018341;28;20181;-51
2023/07/27 02:31:34;;;;;;;3.07;2.80;;;;;;;;;;5023045;28;20268;-51
2023/07/27 02:34:01;;;;;;;2.63;2.43;;;;;;;;;;5015397;28;20205;-51
2023/07/27 02:36:27;;;;;;;3.37;3.07;;;;;;;;;;5015630;28;20190;-50
2023/07/27 02:38:53;;;;;;;4.60;3.23;;;;;;;;;;5014301;28;20193;-50
2023/07/27 02:41:19;;;;;;;2.87;2.57;;;;;;;;;;5016341;28;20715;-50
2023/07/27 02:43:46;;;;;;;3.63;2.80;;;;;;;;;;5018034;28;20201;-50
2023/07/27 02:46:12;;;;;;;3.17;2.83;;;;;;;;;;5021405;28;20261;-51
2023/07/27 02:48:38;;;;;;;3.67;3.20;;;;;;;;;;5017098;28;20185;-50
2023/07/27 02:51:05;;;;;;;4.03;3.50;;;;;;;;;;5020573;28;20670;-51
2023/07/27 02:53:31;;;;;;;3.23;2.93;;;;;;;;;;5016102;28;20271;-51
2023/07/27 02:55:57;;;;;;;4.27;3.00;;;;;;;;;;5023456;28;20247;-50
2023/07/27 02:58:24;;;;;;;3.10;2.80;;;;;;;;;;5020491;28;20532;-51
2023/07/27 03:00:51;;;;;;;3.33;2.90;;;;;;;;;;5022382;28;20660;-50
2023/07/27 03:03:17;;;;;;;3.83;3.27;;;;;;;;;;5022230;28;20212;-51
2023/07/27 03:05:44;;;;;;;3.77;2.80;;;;;;;;;;5019040;28;20673;-51
2023/07/27 03:08:10;;;;;;;3.90;3.07;;;;;;;;;;5013384;28;20269;-50
2023/07/27 03:10:36;;;;;;;2.77;2.57;;;;;;;;;;5014018;28;20184;-50
2023/07/27 03:13:03;;;;;;;3.67;3.10;;;;;;;;;;5018871;28;20251;-50
2023/07/27 03:15:29;;;;;;;3.10;2.80;;;;;;;;;;5027712;28;20658;-50
2023/07/27 03:17:55;;;;;;;2.80;2.53;;;;;;;;;;5021187;28;21038;-50
2023/07/27 03:20:21;;;;;;;2.83;2.60;;;;;;;;;;5024601;28;20244;-50
2023/07/27 03:22:48;;;;;;;2.87;2.67;;;;;;;;;;5028127;28;20209;-51
2023/07/27 03:25:15;;;;;;;4.03;3.03;;;;;;;;;;5017611;28;20251;-50
2023/07/27 03:27:41;;;;;;;3.77;2.53;;;;;;;;;;5026194;28;20194;-50
2023/07/27 03:30:07;;;;;;;4.13;2.90;;;;;;;;;;5032199;28;20166;-50
2023/07/27 03:32:33;;;;;;;3.13;2.47;;;;;;;;;;5022543;28;20185;-50
2023/07/27 03:35:00;;;;;;;2.50;2.30;;;;;;;;;;5031770;28;20223;-50
2023/07/27 03:37:26;;;;;;;2.63;2.43;;;;;;;;;;5031570;28;20290;-50
2023/07/27 03:39:52;;;;;;;2.60;2.40;;;;;;;;;;5026413;28;20185;-50
2023/07/27 03:42:18;;;;;;;3.10;2.90;;;;;;;;;;5020873;28;20209;-50
2023/07/27 03:44:44;;;;;;;2.63;2.43;;;;;;;;;;5028416;28;20236;-50
2023/07/27 03:47:10;;;;;;;2.90;2.60;;;;;;;;;;5024849;28;20581;-50
2023/07/27 03:49:37;;;;;;;3.27;2.97;;;;;;;;;;5024224;28;20725;-49
2023/07/27 03:52:03;;;;;;;3.00;2.80;;;;;;;;;;5025545;28;20591;-48
2023/07/27 03:54:29;;;;;;;2.50;2.30;;;;;;;;;;5024713;28;20196;-48
2023/07/27 03:56:55;;;;;;;3.13;2.60;;;;;;;;;;5027709;28;20514;-49
2023/07/27 03:59:27;;;;;;;3.25;2.95;;;;;;;;;;5027571;28;20844;-49
2023/07/27 04:01:54;;;;;;;3.43;3.13;;;;;;;;;;5016482;28;20198;-49
2023/07/27 04:04:20;;;;;;;3.53;3.23;;;;;;;;;;5020698;28;20208;-49
2023/07/27 04:06:46;;;;;;;3.47;3.17;;;;;;;;;;5023213;28;20728;-50
2023/07/27 04:09:12;;;;;;;3.20;2.90;;;;;;;;;;5022730;28;20550;-50
2023/07/27 04:11:38;;;;;;;2.80;2.60;;;;;;;;;;5021103;28;20612;-50
2023/07/27 04:14:05;;;;;;;3.07;2.77;;;;;;;;;;5028110;28;20272;-49
2023/07/27 04:16:31;;;;;;;4.47;3.60;;;;;;;;;;5027053;28;20276;-50
2023/07/27 04:18:57;;;;;;;4.23;3.17;;;;;;;;;;5027564;28;20200;-49
2023/07/27 04:21:23;;;;;;;3.83;3.40;;;;;;;;;;5022455;28;20259;-48
2023/07/27 04:23:50;;;;;;;4.17;3.20;;;;;;;;;;5026398;28;20208;-51
2023/07/27 04:26:16;;;;;;;6.03;2.90;;;;;;;;;;5026175;28;20202;-50
2023/07/27 04:28:43;;;;;;;3.50;3.20;;;;;;;;;;5019718;28;20181;-50
2023/07/27 04:31:09;;;;;;;3.77;3.30;;;;;;;;;;5019444;28;20190;-50
2023/07/27 04:33:35;;;;;;;3.40;3.10;;;;;;;;;;5025091;28;20198;-50
2023/07/27 04:36:02;;;;;;;5.07;3.17;;;;;;;;;;5025892;28;20193;-49
2023/07/27 04:38:28;;;;;;;3.70;3.40;;;;;;;;;;5024606;28;20210;-50
2023/07/27 04:40:54;;;;;;;3.93;3.27;;;;;;;;;;5023536;28;20189;-50
2023/07/27 04:43:21;;;;;;;3.33;2.73;;;;;;;;;;5016888;28;20209;-51
2023/07/27 04:45:47;;;;;;;3.40;3.10;;;;;;;;;;5016459;28;20550;-50
2023/07/27 04:48:14;;;;;;;3.43;2.87;;;;;;;;;;5019212;28;20208;-51
2023/07/27 04:50:40;;;;;;;3.80;2.90;;;;;;;;;;5021648;28;20247;-51
2023/07/27 04:53:06;;;;;;;3.83;3.53;;;;;;;;;;5023769;28;20342;-52
2023/07/27 04:55:32;;;;;;;4.27;3.20;;;;;;;;;;5025303;28;20190;-51
2023/07/27 04:57:59;;;;;;;3.77;3.37;;;;;;;;;;5018719;28;20660;-51
2023/07/27 05:00:26;;;;;;;3.90;3.60;;;;;;;;;;5020688;28;20594;-52
2023/07/27 05:02:52;;;;;;;4.20;3.83;;;;;;;;;;5013223;28;20216;-51
2023/07/27 05:05:18;;;;;;;4.83;3.83;;;;;;;;;;5023139;28;20222;-51
2023/07/27 05:07:45;;;;;;;3.70;3.40;;;;;;;;;;5024704;28;20174;-51
2023/07/27 05:10:11;;;;;;;4.23;3.13;;;;;;;;;;5020977;28;20556;-53
2023/07/27 05:12:37;;;;;;;5.73;3.33;;;;;;;;;;5019497;28;20552;-51
2023/07/27 05:15:04;;;;;;;4.80;3.63;;;;;;;;;;5026136;28;20668;-51
2023/07/27 05:17:30;;;;;;;3.70;3.40;;;;;;;;;;5020685;28;20624;-51
2023/07/27 05:19:57;;;;;;;4.27;3.33;;;;;;;;;;5023760;28;20213;-51
2023/07/27 05:22:23;;;;;;;3.97;3.33;;;;;;;;;;5020973;28;20673;-51
2023/07/27 05:24:49;;;;;;;4.77;3.47;;;;;;;;;;5020762;28;20186;-51
2023/07/27 05:27:15;;;;;;;4.60;4.20;;;;;;;;;;5014588;28;20176;-51
2023/07/27 05:29:42;;;;;;;4.90;2.80;;;;;;;;;;5015244;28;20588;-51
2023/07/27 05:32:09;;;;;;;3.87;3.40;;;;;;;;;;5019790;28;20302;-52
2023/07/27 05:34:35;;;;;;;4.33;2.93;;;;;;;;;;5022387;28;20991;-50
2023/07/27 05:37:01;;;;;;;3.40;3.10;;;;;;;;;;5018756;28;20270;-51
2023/07/27 05:39:31;;;;;;;4.13;3.60;;;;;;;;;;5016599;28;20186;-52
2023/07/27 05:41:57;;;;;;;4.80;3.30;;;;;;;;;;5012409;28;20777;-52
2023/07/27 05:44:24;;;;;;;3.30;3.00;;;;;;;;;;5022921;28;20178;-52
2023/07/27 05:46:52;;;;;;;3.90;3.17;;;;;;;;;;5019662;28;20201;-52
2023/07/27 05:49:18;;;;;;;3.40;3.10;;;;;;;;;;5017868;28;20220;-52
2023/07/27 05:51:44;;;;;;;4.07;3.30;;;;;;;;;;5016360;28;20178;-51
2023/07/27 05:54:11;;;;;;;4.63;2.93;;;;;;;;;;5021739;28;20187;-51
2023/07/27 05:56:37;;;;;;;3.53;3.00;;;;;;;;;;5021037;28;20186;-51
2023/07/27 05:59:03;;;;;;;4.17;3.13;;;;;;;;;;5016431;28;20185;-51
2023/07/27 06:01:30;;;;;;;2.90;2.40;;;;;;;;;;5014112;28;20190;-51
2023/07/27 06:03:56;;;;;;;4.30;2.90;;;;;;;;;;5019237;28;20668;-51
2023/07/27 06:06:22;;;;;;;4.10;3.33;;;;;;;;;;5021561;28;20241;-51
2023/07/27 06:08:48;;;;;;;3.60;2.90;;;;;;;;;;5017001;28;20186;-51
2023/07/27 06:11:14;;;;;;;3.57;2.63;;;;;;;;;;5011760;28;20189;-51
2023/07/27 06:13:41;;;;;;;3.10;2.80;;;;;;;;;;5023005;28;20186;-51
2023/07/27 06:16:07;;;;;;;2.90;2.60;;;;;;;;;;5023320;28;20181;-51
2023/07/27 06:18:34;;;;;;;3.97;3.10;;;;;;;;;;5016586;28;20240;-50
2023/07/27 06:21:00;;;;;;;3.47;3.17;;;;;;;;;;5022358;28;20490;-50
2023/07/27 06:23:27;;;;;;;3.97;2.80;;;;;;;;;;5017090;28;20241;-50
2023/07/27 06:25:53;;;;;;;3.77;2.80;;;;;;;;;;5019183;28;20174;-52
2023/07/27 06:28:19;;;;;;;3.07;2.70;;;;;;;;;;5012807;28;20182;-49
2023/07/27 06:30:46;;;;;;;3.07;2.77;;;;;;;;;;5015283;28;20438;-50
2023/07/27 06:33:12;;;;;;;4.57;3.00;;;;;;;;;;5025566;28;20190;-49
2023/07/27 06:35:38;;;;;;;4.03;2.70;;;;;;;;;;5019902;28;20421;-50
2023/07/27 06:38:05;;;;;;;3.37;2.90;;;;;;;;;;5028165;28;20185;-50
2023/07/27 06:40:31;;;;;;;3.60;2.80;;;;;;;;;;5021266;28;20186;-50
2023/07/27 06:42:57;;;;;;;4.00;3.63;;;;;;;;;;5022412;28;20747;-49
2023/07/27 06:45:24;;;;;;;3.20;2.90;;;;;;;;;;5024372;28;20273;-50
2023/07/27 06:47:50;;;;;;;3.77;3.47;;;;;;;;;;5022262;28;20244;-50
2023/07/27 06:50:16;;;;;;;3.03;2.70;;;;;;;;;;5021500;28;20589;-49
2023/07/27 06:52:45;;;;;;;4.87;4.10;;;;;;;;;;5025993;28;20186;-50
2023/07/27 06:55:11;;;;;;;5.50;3.13;;;;;;;;;;5006312;28;20282;-50
2023/07/27 06:57:38;;;;;;;2.90;2.70;;;;;;;;;;5012360;28;20187;-49
2023/07/27 07:00:06;;;;;;;5.23;3.00;;;;;;;;;;5015446;28;20181;-49
2023/07/27 07:02:32;;;;;;;3.17;2.87;;;;;;;;;;5013134;28;20202;-49
2023/07/27 07:04:58;;;;;;;3.60;2.87;;;;;;;;;;5008694;28;20191;-50
2023/07/27 07:07:24;;;;;;;3.70;2.87;;;;;;;;;;5018202;28;20186;-49
2023/07/27 07:09:52;;;;;;;3.33;2.77;;;;;;;;;;5014765;28;20437;-49
2023/07/27 07:12:18;;;;;;;2.90;2.60;;;;;;;;;;5010410;28;20190;-49
2023/07/27 07:14:44;;;;;;;3.70;3.10;;;;;;;;;;5016171;28;20190;-51
2023/07/27 07:17:11;;;;;;;3.23;2.77;;;;;;;;;;5019455;28;20185;-50
2023/07/27 07:19:37;;;;;;;3.43;2.87;;;;;;;;;;5019433;28;20231;-48
2023/07/27 07:22:04;;;;;;;3.20;2.90;;;;;;;;;;5012672;28;20522;-48
2023/07/27 07:24:30;;;;;;;3.73;3.00;;;;;;;;;;5013373;28;20182;-47
2023/07/27 07:26:56;;;;;;;2.93;2.70;;;;;;;;;;5018281;28;20181;-49
2023/07/27 07:29:23;;;;;;;2.60;2.40;;;;;;;;;;5020730;28;20190;-48
2023/07/27 07:31:49;;;;;;;2.80;2.60;;;;;;;;;;5018107;28;20197;-48
2023/07/27 07:34:15;;;;;;;3.00;2.80;;;;;;;;;;5016767;28;20811;-49
2023/07/27 07:36:41;;;;;;;3.07;2.77;;;;;;;;;;5014271;28;20192;-48
2023/07/27 07:39:07;;;;;;;2.80;2.60;;;;;;;;;;5010801;28;20194;-48
2023/07/27 07:41:34;;;;;;;3.50;2.63;;;;;;;;;;5016321;28;20500;-49
2023/07/27 07:44:00;;;;;;;2.90;2.60;;;;;;;;;;5010451;28;20167;-50
2023/07/27 07:46:26;;;;;;;2.40;2.20;;;;;;;;;;5013136;28;20527;-49
2023/07/27 07:48:52;;;;;;;2.63;2.43;;;;;;;;;;5020809;28;20182;-51
2023/07/27 07:51:19;;;;;;;2.93;2.70;;;;;;;;;;5011606;28;20178;-50
2023/07/27 07:53:45;;;;;;;2.83;2.60;;;;;;;;;;5006574;28;20643;-50
2023/07/27 07:56:15;;;;;;;2.63;2.30;;;;;;;;;;5006376;28;20477;-50
2023/07/27 07:58:42;;;;;;;2.87;2.30;;;;;;;;;;5008214;28;20389;-51
2023/07/27 08:01:08;;;;;;;2.63;2.40;;;;;;;;;;5011824;28;20178;-51
2023/07/27 08:03:35;;;;;;;2.70;2.20;;;;;;;;;;5011355;28;20268;-51
2023/07/27 08:06:01;;;;;;;3.17;2.40;;;;;;;;;;5011509;28;20222;-51
2023/07/27 08:08:28;;;;;;;2.50;2.30;;;;;;;;;;5012356;28;20217;-51
2023/07/27 08:10:54;;;;;;;2.47;2.27;;;;;;;;;;5024618;28;20286;-51
2023/07/27 08:13:20;;;;;;;2.30;2.10;;;;;;;;;;5020548;28;20178;-51
2023/07/27 08:15:53;;;;;;;3.37;2.27;;;;;;;;;;5020062;28;20194;-51
2023/07/27 08:18:20;;;;;;;2.90;2.40;;;;;;;;;;5016367;28;20193;-50
2023/07/27 08:20:57;;;;;;;3.47;2.17;;;;;;;;;;5017171;28;20613;-51
2023/07/27 08:23:23;;;;;;;2.80;2.50;;;;;;;;;;5021578;28;20219;-51
2023/07/27 08:25:49;;;;;;;2.60;2.40;;;;;;;;;;5017671;28;20170;-51
2023/07/27 08:28:15;;;;;;;2.67;2.30;;;;;;;;;;5014675;28;20183;-50
2023/07/27 08:30:42;;;;;;;2.30;2.10;;;;;;;;;;5013651;28;20187;-51
2023/07/27 08:33:08;;;;;;;2.60;2.40;;;;;;;;;;5023570;28;20186;-51
2023/07/27 08:35:34;;;;;;;2.23;2.10;;;;;;;;;;5022276;28;20682;-50
2023/07/27 08:38:00;;;;;;;2.60;2.20;;;;;;;;;;5022753;28;20224;-51
2023/07/27 08:40:28;;;;;;;2.30;2.10;;;;;;;;;;5024470;28;20357;-51
2023/07/27 08:42:55;;;;;;;2.00;1.90;;;;;;;;;;5017899;28;20198;-51
2023/07/27 08:45:21;;;;;;;2.50;2.13;;;;;;;;;;5022575;28;20502;-51
2023/07/27 08:47:54;;;;;;;2.47;2.27;;;;;;;;;;5023232;28;20324;-51
2023/07/27 08:50:20;;;;;;;2.07;1.97;;;;;;;;;;5012362;28;20181;-51
2023/07/27 08:52:47;;;;;;;2.27;1.90;;;;;;;;;;5022920;28;20185;-51
2023/07/27 08:55:13;;;;;;;2.50;2.30;;;;;;;;;;5017723;28;20281;-51
2023/07/27 08:57:39;;;;;;;2.20;1.93;;;;;;;;;;5021872;28;20189;-50
2023/07/27 09:00:06;;;;;;;2.90;2.20;;;;;;;;;;5020095;28;20256;-50
2023/07/27 09:02:32;;;;;;;2.10;1.90;;;;;;;;;;5016663;28;20209;-50
2023/07/27 09:04:58;;;;;;;2.70;2.30;;;;;;;;;;5022435;28;20252;-49
2023/07/27 09:07:24;;;;;;;2.33;2.13;;;;;;;;;;5023706;28;20461;-48
2023/07/27 09:09:51;;;;;;;2.47;1.83;;;;;;;;;;5020113;28;20541;-49
2023/07/27 09:12:18;;;;;;;2.10;1.90;;;;;;;;;;5023298;28;20276;-48
2023/07/27 09:14:45;;;;;;;2.00;1.90;;;;;;;;;;5022593;28;20273;-49
2023/07/27 09:17:14;;;;;;;1.97;1.57;;;;;;;;;;5021679;28;20181;-49
2023/07/27 09:19:42;;;;;;;1.90;1.80;;;;;;;;;;5022992;28;20271;-50
2023/07/27 09:22:08;;;;;;;1.63;1.53;;;;;;;;;;5019242;28;20202;-50
2023/07/27 09:24:35;;;;;;;1.80;1.70;;;;;;;;;;5014299;28;20189;-50
2023/07/27 09:27:02;;;;;;;1.93;1.70;;;;;;;;;;5024468;28;20192;-51
2023/07/27 09:29:29;;;;;;;2.20;2.00;;;;;;;;;;5016929;28;20242;-50
2023/07/27 09:32:00;;;;;;;2.10;2.00;;;;;;;;;;5023206;28;20528;-50
2023/07/27 09:34:31;;;;;;;1.83;1.67;;;;;;;;;;5018190;28;20274;-50
2023/07/27 09:37:02;;;;;;;2.00;1.80;;;;;;;;;;5020571;28;20182;-49
2023/07/27 09:39:28;;;;;;;2.10;1.90;;;;;;;;;;5022748;28;20179;-50
2023/07/27 09:41:54;;;;;;;1.87;1.77;;;;;;;;;;5017750;28;20205;-50
2023/07/27 09:44:21;;;;;;;1.67;1.57;;;;;;;;;;5017949;28;20697;-50
2023/07/27 09:46:47;;;;;;;2.00;1.80;;;;;;;;;;5020894;28;20286;-50
2023/07/27 09:49:14;;;;;;;1.97;1.80;;;;;;;;;;5016404;28;20756;-50
2023/07/27 09:51:41;;;;;;;2.03;1.90;;;;;;;;;;5016133;28;20260;-49
2023/07/27 09:54:07;;;;;;;1.60;1.50;;;;;;;;;;5026343;28;20260;-50
2023/07/27 09:56:37;;;;;;;1.90;1.80;;;;;;;;;;5014305;28;20189;-50
2023/07/27 09:59:03;;;;;;;1.60;1.50;;;;;;;;;;5014340;28;20526;-50
2023/07/27 10:01:29;;;;;;;1.83;1.63;;;;;;;;;;5016348;28;20186;-50
2023/07/27 10:03:58;;;;;;;2.27;1.60;;;;;;;;;;5017438;28;20641;-50
2023/07/27 10:06:28;;;;;;;2.90;2.00;;;;;;;;;;5018070;28;20218;-50
2023/07/27 10:08:55;;;;;;;1.97;1.87;;;;;;;;;;5015569;28;20236;-50
2023/07/27 10:11:50;;;;;;;2.57;2.33;;;;;;;;;;5024270;28;20598;-50
2023/07/27 10:14:17;;;;;;;1.77;1.67;;;;;;;;;;5012763;28;20560;-50
2023/07/27 10:16:57;;;;;;;1.97;1.87;;;;;;;;;;5019319;28;20178;-50
2023/07/27 10:19:23;;;;;;;1.90;1.80;;;;;;;;;;5017538;28;20271;-50
2023/07/27 10:21:51;;;;;;;2.00;1.90;;;;;;;;;;5016623;28;20277;-50
2023/07/27 10:24:23;;;;;;;1.50;1.40;;;;;;;;;;5015196;28;20261;-51
2023/07/27 10:26:51;;;;;;;1.70;1.60;;;;;;;;;;5014660;28;20611;-50
2023/07/27 10:29:22;;;;;;;1.90;1.80;;;;;;;;;;5020822;28;20180;-51
2023/07/27 10:32:02;;;;;;;2.60;1.80;;;;;;;;;;5014695;28;20201;-51
2023/07/27 10:34:29;;;;;;;2.03;1.73;;;;;;;;;;5019198;28;20261;-51
2023/07/27 10:37:02;;;;;;;2.77;2.00;;;;;;;;;;5021812;28;20632;-51
2023/07/27 10:39:33;;;;;;;1.80;1.70;;;;;;;;;;5017934;28;20181;-51
2023/07/27 10:42:01;;;;;;;2.03;1.83;;;;;;;;;;5014988;28;20217;-51
2023/07/27 10:44:41;;;;;;;1.70;1.60;;;;;;;;;;5019210;28;20174;-51
2023/07/27 10:47:08;;;;;;;1.80;1.70;;;;;;;;;;5015966;28;20184;-51
2023/07/27 10:49:39;;;;;;;2.00;1.80;;;;;;;;;;5016614;28;20567;-51
2023/07/27 10:52:05;;;;;;;1.97;1.87;;;;;;;;;;5020905;28;20280;-51
2023/07/27 10:54:32;;;;;;;2.70;2.50;;;;;;;;;;5015750;28;20190;-51
2023/07/27 10:56:58;;;;;;;2.30;2.10;;;;;;;;;;5018433;28;20185;-51
2023/07/27 10:59:25;;;;;;;2.83;2.40;;;;;;;;;;5014242;28;20674;-51
2023/07/27 11:01:52;;;;;;;2.10;2.00;;;;;;;;;;5008741;28;20642;-51
2023/07/27 11:04:18;;;;;;;2.00;1.90;;;;;;;;;;5012885;28;20216;-50
2023/07/27 11:06:45;;;;;;;2.37;2.17;;;;;;;;;;5014149;28;20607;-50
2023/07/27 11:09:18;;;;;;;2.40;2.17;;;;;;;;;;5021817;28;20714;-51
2023/07/27 11:11:44;;;;;;;3.13;2.73;;;;;;;;;;5018887;28;20214;-53
2023/07/27 11:14:11;;;;;;;2.83;2.50;;;;;;;;;;5015324;28;20600;-51
2023/07/27 11:16:38;;;;;;;2.60;2.40;;;;;;;;;;5010695;28;20678;-51
2023/07/27 11:19:07;;;;;;;2.93;2.50;;;;;;;;;;5011945;28;20547;-51
2023/07/27 11:21:34;;;;;;;2.47;2.27;;;;;;;;;;5015351;28;20193;-51
2023/07/27 11:24:02;;;;;;;3.63;2.53;;;;;;;;;;5017339;28;20531;-51
2023/07/27 11:26:28;;;;;;;3.70;2.30;;;;;;;;;;5014129;28;20182;-51
2023/07/27 11:28:55;;;;;;;2.40;2.20;;;;;;;;;;5016404;28;20251;-51
2023/07/27 11:31:22;;;;;;;2.33;2.20;;;;;;;;;;5014690;28;20195;-51
2023/07/27 11:33:48;;;;;;;2.87;2.20;;;;;;;;;;5017913;28;20197;-51
2023/07/27 11:36:14;;;;;;;2.50;2.30;;;;;;;;;;5026613;28;20276;-51
2023/07/27 11:38:41;;;;;;;2.53;2.33;;;;;;;;;;5024006;28;20272;-50
2023/07/27 11:41:07;;;;;;;2.50;2.30;;;;;;;;;;5022836;28;20181;-50
2023/07/27 11:43:34;;;;;;;2.77;2.10;;;;;;;;;;5022513;28;20216;-48
2023/07/27 11:46:01;;;;;;;2.60;2.40;;;;;;;;;;5026690;28;20841;-50
2023/07/27 11:48:28;;;;;;;3.60;2.90;;;;;;;;;;5026790;28;20251;-49
2023/07/27 11:50:56;;;;;;;2.30;2.10;;;;;;;;;;5017840;28;20638;-49
2023/07/27 11:53:28;;;;;;;2.63;2.30;;;;;;;;;;5019285;28;20181;-50
2023/07/27 11:55:58;;;;;;;2.40;2.20;;;;;;;;;;5024019;28;20594;-50
2023/07/27 11:58:27;;;;;;;2.47;2.27;;;;;;;;;;5019002;28;20642;-50
2023/07/27 12:00:55;;;;;;;2.33;2.13;;;;;;;;;;5022206;28;20945;-50
2023/07/27 12:03:22;;;;;;;3.73;3.10;;;;;;;;;;5023130;28;20267;-51
2023/07/27 12:05:48;;;;;;;2.30;2.10;;;;;;;;;;5019842;28;20533;-51
2023/07/27 12:08:18;;;;;;;2.97;2.57;;;;;;;;;;5020852;28;20910;-51
2023/07/27 12:10:51;;;;;;;2.80;2.60;;;;;;;;;;5019480;28;20189;-49
2023/07/27 12:13:20;;;;;;;3.77;2.93;;;;;;;;;;5020642;28;20533;-49
2023/07/27 12:15:46;;;;;;;3.10;2.70;;;;;;;;;;5019582;28;20817;-49
2023/07/27 12:18:12;;;;;;;3.70;3.30;;;;;;;;;;5018637;28;20196;-48
2023/07/27 12:20:39;;;;;;;3.13;2.73;;;;;;;;;;5016991;28;20189;-50
2023/07/27 12:23:06;;;;;;;2.83;2.57;;;;;;;;;;5023027;28;20206;-50
2023/07/27 12:25:32;;;;;;;3.37;3.00;;;;;;;;;;5016241;28;20197;-50
2023/07/27 12:27:58;;;;;;;2.77;2.50;;;;;;;;;;5016034;28;20192;-50
2023/07/27 12:30:25;;;;;;;3.00;2.50;;;;;;;;;;5024587;28;20562;-50
2023/07/27 12:32:51;;;;;;;2.40;2.20;;;;;;;;;;5019008;28;20230;-50
2023/07/27 12:35:17;;;;;;;2.73;2.53;;;;;;;;;;5013559;28;20289;-50
2023/07/27 12:37:44;;;;;;;2.40;2.20;;;;;;;;;;5018593;28;20186;-50
2023/07/27 12:40:11;;;;;;;2.60;2.40;;;;;;;;;;5018529;28;20201;-50
2023/07/27 12:42:38;;;;;;;2.67;2.30;;;;;;;;;;5027096;28;20206;-50
2023/07/27 12:45:04;;;;;;;2.10;2.00;;;;;;;;;;5015552;28;20221;-51
2023/07/27 12:47:30;;;;;;;2.40;2.20;;;;;;;;;;5017436;28;20218;-55
2023/07/27 12:49:56;;;;;;;2.30;2.10;;;;;;;;;;5015927;28;20225;-50
2023/07/27 12:52:22;;;;;;;3.87;2.40;;;;;;;;;;5024651;28;20183;-50
2023/07/27 12:54:48;;;;;;;3.10;2.27;;;;;;;;;;5015327;28;20206;-51
2023/07/27 12:57:14;;;;;;;2.07;1.93;;;;;;;;;;5016897;28;20247;-51
2023/07/27 12:59:41;;;;;;;2.20;2.00;;;;;;;;;;5022579;28;20308;-50
2023/07/27 13:02:07;;;;;;;2.33;2.13;;;;;;;;;;5016684;28;20748;-51
2023/07/27 13:04:33;;;;;;;1.90;1.80;;;;;;;;;;5016231;28;20298;-51
2023/07/27 13:07:00;;;;;;;2.30;2.10;;;;;;;;;;5022151;28;20686;-51
2023/07/27 13:09:27;;;;;;;2.00;1.90;;;;;;;;;;5012496;28;20174;-52
2023/07/27 13:11:53;;;;;;;1.80;1.70;;;;;;;;;;5021268;28;20586;-51
2023/07/27 13:14:19;;;;;;;2.00;1.90;;;;;;;;;;5018302;28;20649;-50
2023/07/27 13:16:46;;;;;;;2.00;1.90;;;;;;;;;;5017907;28;20495;-51
2023/07/27 13:19:12;;;;;;;1.90;1.80;;;;;;;;;;5019757;28;20709;-52
2023/07/27 13:21:40;;;;;;;2.00;1.90;;;;;;;;;;5024009;28;20183;-51
2023/07/27 13:24:07;;;;;;;2.30;2.10;;;;;;;;;;5021518;28;20618;-51
2023/07/27 13:26:33;;;;;;;2.00;1.80;;;;;;;;;;5014570;28;20649;-52
2023/07/27 13:28:59;;;;;;;2.33;1.90;;;;;;;;;;5015413;28;20181;-52
2023/07/27 13:31:26;;;;;;;1.73;1.63;;;;;;;;;;5019765;28;20735;-52
2023/07/27 13:33:53;;;;;;;2.13;2.03;;;;;;;;;;5019363;28;20607;-51
2023/07/27 13:36:19;;;;;;;1.80;1.70;;;;;;;;;;5018239;28;20264;-52
2023/07/27 13:38:45;;;;;;;2.10;1.83;;;;;;;;;;5013402;28;20174;-53
2023/07/27 13:41:11;;;;;;;2.30;2.10;;;;;;;;;;5018500;28;20181;-54
2023/07/27 13:43:38;;;;;;;2.40;2.20;;;;;;;;;;5024770;28;20205;-53
2023/07/27 13:46:04;;;;;;;2.60;2.00;;;;;;;;;;5020080;28;20203;-53
2023/07/27 13:48:30;;;;;;;2.00;1.90;;;;;;;;;;5019313;28;20177;-54
2023/07/27 13:50:56;;;;;;;2.00;1.50;;;;;;;;;;5013389;28;20192;-53
2023/07/27 13:53:23;;;;;;;2.37;1.93;;;;;;;;;;5015534;28;20576;-54
2023/07/27 13:55:53;;;;;;;2.23;2.03;;;;;;;;;;5014008;28;20519;-53
2023/07/27 13:58:19;;;;;;;2.17;2.07;;;;;;;;;;5013739;28;20895;-53
2023/07/27 14:00:48;;;;;;;3.40;2.00;;;;;;;;;;5011435;28;20289;-53
2023/07/27 14:03:15;;;;;;;2.60;2.40;;;;;;;;;;5021533;28;20205;-53
2023/07/27 14:05:41;;;;;;;1.70;1.60;;;;;;;;;;5012511;28;20317;-53
2023/07/27 14:08:08;;;;;;;2.20;2.00;;;;;;;;;;5022298;28;20178;-53
2023/07/27 14:10:34;;;;;;;2.03;1.93;;;;;;;;;;5010001;28;20277;-54
2023/07/27 14:13:04;;;;;;;2.00;1.90;;;;;;;;;;5020236;28;20544;-54
2023/07/27 14:15:30;;;;;;;2.30;2.10;;;;;;;;;;5016674;28;20301;-54
2023/07/27 14:17:57;;;;;;;2.43;2.17;;;;;;;;;;5012538;28;20193;-53
2023/07/27 14:20:24;;;;;;;3.87;2.33;;;;;;;;;;5012311;28;20273;-54
2023/07/27 14:22:50;;;;;;;2.50;2.30;;;;;;;;;;5016280;28;20210;-53
2023/07/27 14:25:16;;;;;;;2.93;2.73;;;;;;;;;;5018304;28;20276;-53
2023/07/27 14:27:42;;;;;;;3.83;3.47;;;;;;;;;;5015937;28;20783;-53
2023/07/27 14:30:09;;;;;;;2.40;2.20;;;;;;;;;;5007800;28;20178;-54
2023/07/27 14:32:35;;;;;;;3.00;2.80;;;;;;;;;;5012566;28;20241;-52
2023/07/27 14:35:02;;;;;;;2.90;2.70;;;;;;;;;;5010312;28;20208;-54
2023/07/27 14:37:28;;;;;;;2.90;2.70;;;;;;;;;;5020223;28;20184;-53
2023/07/27 14:39:54;;;;;;;2.70;2.47;;;;;;;;;;5015509;28;20529;-52
2023/07/27 14:42:21;;;;;;;2.97;2.33;;;;;;;;;;5017060;28;20213;-58